Time;durP1;ratioP1;P1;durP2;ratioP2;P2;SDS_P1;SDS_P2;PMS_P1;PMS_P2;Temp;Humidity;BMP_temperature;BMP_pressure;BME280_temperature;BME280_humidity;BME280_pressure;Samples;Min_cycle;Max_cycle;Signal;HPM_P1;HPM_P2
2021/12/22 00:01:09;;;;;;;28.90;15.67;;;-1.10;91.60;;;;;;5069542;28;20481;-47
2021/12/22 00:03:35;;;;;;;23.10;12.43;;;-1.10;91.70;;;;;;5069418;28;20491;-47
2021/12/22 00:06:02;;;;;;;21.17;12.10;;;-1.10;92.00;;;;;;5063476;28;20502;-47
2021/12/22 00:08:29;;;;;;;16.27;10.13;;;-1.10;91.50;;;;;;5064211;28;20568;-46
2021/12/22 00:10:56;;;;;;;21.63;12.10;;;-1.20;91.50;;;;;;5067160;28;20480;-47
2021/12/22 00:13:24;;;;;;;17.63;10.43;;;-1.30;92.40;;;;;;5068229;28;20973;-46
2021/12/22 00:15:50;;;;;;;17.20;11.50;;;-1.40;92.60;;;;;;5063202;28;20484;-46
2021/12/22 00:18:17;;;;;;;19.67;11.20;;;-1.30;92.40;;;;;;5069771;28;20484;-46
2021/12/22 00:20:44;;;;;;;21.43;10.70;;;-1.30;91.80;;;;;;5067812;28;20509;-47
2021/12/22 00:23:10;;;;;;;20.20;13.03;;;-1.30;91.80;;;;;;5071093;28;20484;-46
2021/12/22 00:25:37;;;;;;;21.70;13.13;;;-1.40;91.60;;;;;;5071099;28;21288;-47
2021/12/22 00:28:04;;;;;;;27.23;12.90;;;-1.40;91.70;;;;;;5068768;28;20482;-49
2021/12/22 00:30:33;;;;;;;18.27;11.63;;;-1.40;91.90;;;;;;5064726;28;20484;-46
2021/12/22 00:33:03;;;;;;;22.63;13.23;;;-1.40;92.00;;;;;;5069029;28;20485;-46
2021/12/22 00:35:38;;;;;;;23.50;13.93;;;-1.40;92.20;;;;;;5041041;28;20848;-46
2021/12/22 00:38:05;;;;;;;20.20;12.03;;;-1.40;91.70;;;;;;5068963;28;20471;-47
2021/12/22 00:40:31;;;;;;;15.90;9.90;;;-1.40;91.40;;;;;;5071063;28;20548;-46
2021/12/22 00:42:58;;;;;;;14.60;11.30;;;-1.40;90.90;;;;;;5070323;28;20474;-47
2021/12/22 00:45:27;;;;;;;19.90;10.43;;;-1.50;90.70;;;;;;5067320;28;20906;-46
2021/12/22 00:47:55;;;;;;;18.33;10.43;;;-1.60;90.20;;;;;;5066297;28;20971;-46
2021/12/22 00:50:23;;;;;;;18.33;9.73;;;-1.60;90.10;;;;;;5054308;28;20492;-46
2021/12/22 00:52:49;;;;;;;20.40;10.27;;;-1.70;90.20;;;;;;5069040;28;20498;-46
2021/12/22 00:55:19;;;;;;;20.27;11.80;;;-1.90;90.20;;;;;;5069152;28;20484;-46
2021/12/22 00:57:46;;;;;;;21.80;11.97;;;-2.00;90.30;;;;;;5064037;28;20672;-46
2021/12/22 01:00:15;;;;;;;22.23;11.10;;;-2.10;90.70;;;;;;5067103;28;20526;-46
2021/12/22 01:02:42;;;;;;;22.03;10.30;;;-2.10;91.10;;;;;;5063907;28;20484;-47
2021/12/22 01:05:12;;;;;;;19.13;10.47;;;-2.10;91.20;;;;;;5084606;28;20479;-46
2021/12/22 01:07:38;;;;;;;18.90;10.30;;;-2.10;91.00;;;;;;5043830;28;20597;-46
2021/12/22 01:10:06;;;;;;;19.57;11.47;;;-2.30;90.70;;;;;;5068992;28;20469;-46
2021/12/22 01:12:33;;;;;;;16.37;10.83;;;-2.30;91.10;;;;;;5064574;28;20480;-46
2021/12/22 01:15:00;;;;;;;15.30;10.10;;;-2.30;91.00;;;;;;5068460;28;20493;-46
2021/12/22 01:17:34;;;;;;;21.77;9.80;;;-2.30;90.90;;;;;;5067006;28;20475;-46
2021/12/22 01:20:07;;;;;;;18.80;11.73;;;-2.20;90.90;;;;;;5069359;28;21004;-46
2021/12/22 01:22:47;;;;;;;19.00;10.80;;;-2.10;91.30;;;;;;5069558;28;20479;-46
2021/12/22 01:25:16;;;;;;;21.03;12.00;;;-2.10;90.90;;;;;;5067622;28;20477;-46
2021/12/22 01:27:44;;;;;;;24.40;12.17;;;-2.10;91.00;;;;;;5059377;28;20487;-46
2021/12/22 01:30:13;;;;;;;20.07;10.60;;;-2.10;90.70;;;;;;5079212;28;20495;-46
2021/12/22 01:32:41;;;;;;;19.53;10.23;;;-2.20;90.30;;;;;;5067562;28;20483;-46
2021/12/22 01:35:11;;;;;;;16.53;10.63;;;-2.30;89.90;;;;;;5068985;28;20469;-46
2021/12/22 01:37:39;;;;;;;15.73;9.67;;;-2.50;90.30;;;;;;5068650;28;20484;-46
2021/12/22 01:40:07;;;;;;;24.50;10.93;;;-2.50;90.70;;;;;;5068110;28;21021;-46
2021/12/22 01:42:34;;;;;;;15.43;10.10;;;-2.50;90.70;;;;;;5058270;28;20484;-46
2021/12/22 01:45:25;;;;;;;24.80;12.93;;;-2.50;90.50;;;;;;5083828;28;20953;-46
2021/12/22 01:50:51;;;;;;;14.63;9.47;;;-2.50;90.00;;;;;;4999653;28;20486;-46
2021/12/22 01:53:39;;;;;;;19.30;11.03;;;-2.50;90.10;;;;;;5050859;28;20493;-46
2021/12/22 01:56:16;;;;;;;16.57;10.50;;;-2.50;90.20;;;;;;5068478;28;20483;-46
2021/12/22 01:58:45;;;;;;;13.60;10.10;;;-2.50;90.10;;;;;;5080413;28;20509;-46
2021/12/22 02:01:12;;;;;;;16.57;10.03;;;-2.50;90.00;;;;;;5073346;28;20488;-46
2021/12/22 02:03:39;;;;;;;20.43;11.80;;;-2.60;90.00;;;;;;5074168;28;21007;-46
2021/12/22 02:06:08;;;;;;;22.00;12.43;;;-2.70;90.50;;;;;;5054338;28;20574;-46
2021/12/22 02:08:37;;;;;;;27.53;11.70;;;-2.70;90.80;;;;;;5074739;28;20487;-46
2021/12/22 02:11:04;;;;;;;18.50;13.27;;;-2.70;91.00;;;;;;5063786;28;20477;-46
2021/12/22 02:13:36;;;;;;;20.77;11.27;;;-2.70;91.30;;;;;;5063462;28;20538;-46
2021/12/22 02:16:06;;;;;;;21.47;11.03;;;-2.70;91.40;;;;;;5068837;28;20961;-46
2021/12/22 02:18:34;;;;;;;23.90;12.37;;;-2.60;91.40;;;;;;5068261;28;20466;-46
2021/12/22 02:21:02;;;;;;;23.07;11.20;;;-2.70;90.70;;;;;;5078292;28;20483;-46
2021/12/22 02:23:29;;;;;;;24.90;12.90;;;-2.70;90.60;;;;;;5079643;28;20520;-46
2021/12/22 02:26:01;;;;;;;15.70;10.40;;;-2.70;90.40;;;;;;5075006;28;20585;-46
2021/12/22 02:28:32;;;;;;;16.83;10.10;;;-2.80;89.50;;;;;;5076326;28;20487;-46
2021/12/22 02:30:59;;;;;;;16.50;10.77;;;-2.90;89.90;;;;;;5065147;28;20888;-47
2021/12/22 02:33:34;;;;;;;19.30;10.30;;;-2.90;90.30;;;;;;5090786;28;20495;-46
2021/12/22 02:36:19;;;;;;;22.57;11.67;;;-2.90;90.70;;;;;;5081406;28;20519;-46
2021/12/22 02:38:48;;;;;;;28.57;12.83;;;-2.90;90.80;;;;;;5062080;28;20512;-46
2021/12/22 02:41:18;;;;;;;26.83;12.90;;;-3.00;91.00;;;;;;5095969;28;20480;-46
2021/12/22 02:43:47;;;;;;;19.83;10.97;;;-3.00;91.30;;;;;;5075609;28;20482;-45
2021/12/22 02:46:16;;;;;;;20.50;11.67;;;-3.00;91.80;;;;;;5077913;28;21389;-47
2021/12/22 02:48:43;;;;;;;20.10;12.47;;;-2.90;92.40;;;;;;5075991;28;20490;-46
2021/12/22 02:51:11;;;;;;;24.10;13.33;;;-2.90;92.20;;;;;;5060723;28;20538;-46
2021/12/22 02:53:43;;;;;;;26.93;15.67;;;-2.80;91.90;;;;;;5082917;28;20533;-46
2021/12/22 02:56:25;;;;;;;21.93;11.20;;;-2.70;91.90;;;;;;5085856;28;20478;-46
2021/12/22 02:59:15;;;;;;;23.83;12.33;;;-2.70;91.70;;;;;;5017883;28;20487;-47
2021/12/22 03:04:42;;;;;;;22.63;11.07;;;-2.60;91.60;;;;;;5009747;28;21179;-47
2021/12/22 03:07:15;;;;;;;21.33;14.67;;;-2.70;91.40;;;;;;5038366;28;20472;-46
2021/12/22 03:09:41;;;;;;;22.87;12.27;;;-2.70;91.40;;;;;;5036940;28;20513;-46
2021/12/22 03:12:14;;;;;;;18.17;9.40;;;-2.70;91.20;;;;;;5036765;28;20500;-46
2021/12/22 03:14:41;;;;;;;13.40;9.90;;;-2.80;91.30;;;;;;5032098;28;20486;-46
2021/12/22 03:17:08;;;;;;;14.73;9.40;;;-2.80;91.50;;;;;;5061747;28;20479;-46
2021/12/22 03:19:36;;;;;;;17.17;11.00;;;-2.80;91.70;;;;;;5076947;28;20500;-47
2021/12/22 03:22:07;;;;;;;22.70;10.83;;;-2.80;91.80;;;;;;5093881;28;20474;-46
2021/12/22 03:24:37;;;;;;;20.70;11.40;;;-2.70;91.90;;;;;;5076775;28;20502;-46
2021/12/22 03:27:07;;;;;;;23.00;10.73;;;-2.70;91.80;;;;;;5052820;28;20484;-46
2021/12/22 03:29:36;;;;;;;22.10;11.60;;;-2.70;91.90;;;;;;5082911;28;20952;-46
2021/12/22 03:32:04;;;;;;;16.87;9.80;;;-2.70;91.80;;;;;;5077298;28;20463;-46
2021/12/22 03:34:31;;;;;;;26.33;13.43;;;-2.70;91.90;;;;;;5081705;28;21838;-45
2021/12/22 03:36:58;;;;;;;16.77;10.73;;;-2.70;91.70;;;;;;5079012;28;20486;-46
2021/12/22 03:39:25;;;;;;;25.17;12.93;;;-2.70;91.60;;;;;;5083786;28;20481;-46
2021/12/22 03:41:53;;;;;;;28.30;12.10;;;-2.80;91.80;;;;;;5082158;28;20831;-46
2021/12/22 03:44:20;;;;;;;24.43;13.57;;;-2.80;92.00;;;;;;5083010;28;20861;-46
2021/12/22 03:46:46;;;;;;;20.97;11.03;;;-2.70;92.40;;;;;;5080911;28;20486;-46
2021/12/22 03:49:15;;;;;;;24.07;13.30;;;-2.70;92.60;;;;;;5069496;28;20506;-46
2021/12/22 03:51:42;;;;;;;28.90;13.43;;;-2.60;92.40;;;;;;5083140;28;20478;-46
2021/12/22 03:54:11;;;;;;;24.70;13.00;;;-2.60;91.90;;;;;;5081666;28;20518;-46
2021/12/22 03:56:38;;;;;;;20.20;12.40;;;-2.50;91.50;;;;;;5077565;28;20490;-46
2021/12/22 03:59:07;;;;;;;18.73;12.63;;;-2.60;91.30;;;;;;5054102;28;20819;-46
2021/12/22 04:01:34;;;;;;;19.30;11.60;;;-2.60;91.30;;;;;;5082972;28;20492;-46
2021/12/22 04:04:07;;;;;;;18.00;11.30;;;-2.60;91.30;;;;;;5074441;28;20481;-46
2021/12/22 04:06:34;;;;;;;26.37;14.10;;;-2.60;91.30;;;;;;5063618;28;20493;-46
2021/12/22 04:09:01;;;;;;;23.23;13.70;;;-2.60;91.40;;;;;;5067704;28;20489;-46
2021/12/22 04:11:28;;;;;;;21.67;13.43;;;-2.60;91.40;;;;;;5070669;28;20486;-46
2021/12/22 04:13:54;;;;;;;18.13;12.03;;;-2.80;90.30;;;;;;5083790;28;20490;-47
2021/12/22 04:16:22;;;;;;;21.70;11.80;;;-3.00;90.80;;;;;;5075244;28;20491;-46
2021/12/22 04:18:49;;;;;;;22.23;13.40;;;-3.10;91.00;;;;;;5073508;28;20492;-46
2021/12/22 04:21:16;;;;;;;20.30;12.30;;;-3.20;91.20;;;;;;5070757;28;20478;-46
2021/12/22 04:23:43;;;;;;;18.90;10.90;;;-3.30;91.40;;;;;;5078063;28;20472;-46
2021/12/22 04:26:12;;;;;;;23.30;13.60;;;-3.30;91.50;;;;;;5069182;28;20477;-46
2021/12/22 04:28:39;;;;;;;17.20;10.83;;;-3.20;91.50;;;;;;5069214;28;20483;-46
2021/12/22 04:31:06;;;;;;;18.43;11.57;;;-3.20;91.40;;;;;;5086464;28;20822;-46
2021/12/22 04:33:34;;;;;;;22.43;12.27;;;-3.20;91.40;;;;;;5064219;28;20462;-46
2021/12/22 04:36:00;;;;;;;17.97;11.90;;;-3.10;91.30;;;;;;5071283;28;20498;-46
2021/12/22 04:38:27;;;;;;;25.10;13.10;;;-3.10;91.20;;;;;;5094056;28;20484;-47
2021/12/22 04:40:54;;;;;;;16.53;11.30;;;-3.00;91.20;;;;;;5080269;28;20493;-46
2021/12/22 04:43:21;;;;;;;23.90;13.00;;;-3.00;90.80;;;;;;5076274;28;20463;-46
2021/12/22 04:45:48;;;;;;;23.10;12.20;;;-3.00;90.60;;;;;;5070237;28;20638;-46
2021/12/22 04:48:14;;;;;;;20.60;12.50;;;-3.10;90.40;;;;;;5072812;28;20486;-46
2021/12/22 04:50:42;;;;;;;26.27;11.83;;;-3.10;90.60;;;;;;5076560;28;21056;-46
2021/12/22 04:53:13;;;;;;;25.40;13.43;;;-3.10;90.90;;;;;;5080145;28;20481;-46
2021/12/22 04:55:40;;;;;;;28.27;14.10;;;-3.10;91.00;;;;;;5080814;28;20835;-46
2021/12/22 04:58:08;;;;;;;24.27;14.63;;;-3.20;90.70;;;;;;5084113;28;20494;-46
2021/12/22 05:00:37;;;;;;;25.37;13.90;;;-3.30;91.10;;;;;;5080363;28;20483;-47
2021/12/22 05:03:04;;;;;;;23.70;14.47;;;-3.20;91.30;;;;;;5077104;28;20474;-46
2021/12/22 05:05:31;;;;;;;23.83;12.43;;;-3.20;91.10;;;;;;5075585;28;20473;-46
2021/12/22 05:08:00;;;;;;;21.90;13.20;;;-3.20;91.00;;;;;;5085340;28;20482;-46
2021/12/22 05:10:28;;;;;;;21.60;12.10;;;-3.20;91.10;;;;;;5077206;28;20493;-46
2021/12/22 05:12:55;;;;;;;20.57;11.30;;;-3.30;90.30;;;;;;5078678;28;20474;-46
2021/12/22 05:15:25;;;;;;;18.10;11.33;;;-3.30;90.10;;;;;;5081319;28;21038;-46
2021/12/22 05:18:22;;;;;;;21.53;12.13;;;-3.40;90.00;;;;;;5070734;28;20485;-46
2021/12/22 05:20:50;;;;;;;22.37;11.80;;;-3.40;90.00;;;;;;5083095;28;20479;-46
2021/12/22 05:23:19;;;;;;;19.00;10.03;;;-3.40;90.40;;;;;;5070888;28;20463;-46
2021/12/22 05:25:46;;;;;;;24.70;12.60;;;-3.40;90.50;;;;;;5067492;28;20553;-46
2021/12/22 05:28:13;;;;;;;23.40;12.30;;;-3.40;90.60;;;;;;5073290;28;20482;-46
2021/12/22 05:30:39;;;;;;;23.40;12.70;;;-3.40;90.90;;;;;;5068995;28;20482;-45
2021/12/22 05:33:06;;;;;;;24.23;11.97;;;-3.40;90.60;;;;;;5075917;28;20496;-46
2021/12/22 05:35:33;;;;;;;19.97;10.83;;;-3.40;90.80;;;;;;5075360;28;21217;-46
2021/12/22 05:38:00;;;;;;;23.93;11.83;;;-3.40;91.00;;;;;;5076768;28;20860;-46
2021/12/22 05:40:28;;;;;;;23.17;12.30;;;-3.30;91.10;;;;;;5075411;28;20533;-46
2021/12/22 05:42:56;;;;;;;23.20;13.37;;;-3.30;91.00;;;;;;5076383;28;20482;-46
2021/12/22 05:45:23;;;;;;;29.20;14.90;;;-3.30;90.50;;;;;;5059800;28;20807;-47
2021/12/22 05:47:52;;;;;;;26.63;14.03;;;-3.30;90.20;;;;;;5078081;28;20972;-46
2021/12/22 05:50:20;;;;;;;20.77;11.77;;;-3.30;90.30;;;;;;5070790;28;21043;-46
2021/12/22 05:52:47;;;;;;;27.17;13.87;;;-3.40;90.60;;;;;;5081044;28;20467;-46
2021/12/22 05:55:13;;;;;;;29.87;15.63;;;-3.40;90.80;;;;;;5078582;28;21036;-46
2021/12/22 05:57:42;;;;;;;36.93;16.67;;;-3.30;90.70;;;;;;5080222;28;20995;-46
2021/12/22 06:00:10;;;;;;;30.53;16.20;;;-3.40;90.10;;;;;;5076684;28;20856;-46
2021/12/22 06:02:36;;;;;;;33.47;16.70;;;-3.40;90.00;;;;;;5080110;28;20475;-46
2021/12/22 06:05:04;;;;;;;22.93;12.23;;;-3.40;89.70;;;;;;5095234;28;20475;-46
2021/12/22 06:07:30;;;;;;;21.80;11.30;;;-3.50;89.40;;;;;;5077700;28;20493;-50
2021/12/22 06:09:57;;;;;;;23.33;12.40;;;-3.60;89.30;;;;;;5081358;28;20486;-46
2021/12/22 06:12:24;;;;;;;20.63;11.60;;;-3.60;89.40;;;;;;5072599;28;20881;-45
2021/12/22 06:14:52;;;;;;;15.97;10.30;;;-3.80;88.40;;;;;;5094835;28;21003;-46
2021/12/22 06:17:19;;;;;;;17.80;11.07;;;-3.80;88.80;;;;;;5085556;28;20489;-46
2021/12/22 06:19:46;;;;;;;25.50;10.93;;;-3.80;89.50;;;;;;5078762;28;20491;-46
2021/12/22 06:22:12;;;;;;;25.07;12.07;;;-3.80;90.30;;;;;;5085431;28;20563;-46
2021/12/22 06:24:39;;;;;;;17.27;11.10;;;-3.80;90.50;;;;;;5082282;28;20474;-46
2021/12/22 06:27:06;;;;;;;22.37;13.23;;;-3.80;90.80;;;;;;5077484;28;20906;-46
2021/12/22 06:29:33;;;;;;;30.90;15.93;;;-3.70;90.80;;;;;;5079054;28;20474;-45
2021/12/22 06:32:01;;;;;;;35.63;16.47;;;-3.70;90.50;;;;;;5069640;28;20515;-46
2021/12/22 06:34:28;;;;;;;27.43;12.27;;;-3.70;90.30;;;;;;5085189;28;20482;-45
2021/12/22 06:36:54;;;;;;;20.67;11.33;;;-3.80;90.20;;;;;;5080587;28;20532;-45
2021/12/22 06:39:22;;;;;;;22.97;11.30;;;-3.80;90.00;;;;;;5076297;28;20467;-45
2021/12/22 06:41:50;;;;;;;19.87;10.60;;;-3.80;89.80;;;;;;5077344;28;20733;-45
2021/12/22 06:44:17;;;;;;;17.47;11.03;;;-3.80;90.10;;;;;;5082921;28;20484;-45
2021/12/22 06:46:43;;;;;;;28.53;14.20;;;-3.80;90.40;;;;;;5079199;28;20477;-45
2021/12/22 06:49:13;;;;;;;29.57;13.53;;;-3.80;90.50;;;;;;5089561;28;20489;-45
2021/12/22 06:51:40;;;;;;;22.20;11.67;;;-3.70;90.40;;;;;;5052435;28;20494;-45
2021/12/22 06:54:07;;;;;;;31.27;15.77;;;-3.70;90.30;;;;;;5075024;28;20488;-46
2021/12/22 06:56:33;;;;;;;31.20;15.47;;;-3.70;89.50;;;;;;5091595;28;20487;-45
2021/12/22 06:59:01;;;;;;;18.60;10.47;;;-3.90;88.30;;;;;;5079505;28;20477;-46
2021/12/22 07:01:31;;;;;;;21.63;13.00;;;-4.00;88.40;;;;;;5078259;28;20484;-45
2021/12/22 07:03:58;;;;;;;25.80;15.20;;;-4.00;89.70;;;;;;5088626;28;21391;-46
2021/12/22 07:06:26;;;;;;;30.33;17.37;;;-4.10;90.00;;;;;;5076981;28;20475;-45
2021/12/22 07:08:53;;;;;;;33.80;17.70;;;-4.10;90.20;;;;;;5065959;28;20876;-47
2021/12/22 07:11:20;;;;;;;28.13;15.47;;;-4.00;90.10;;;;;;5077579;28;20896;-45
2021/12/22 07:13:47;;;;;;;36.57;16.10;;;-3.90;90.10;;;;;;5061988;28;20974;-45
2021/12/22 07:16:14;;;;;;;35.40;16.63;;;-3.90;90.00;;;;;;5085614;28;20990;-45
2021/12/22 07:18:41;;;;;;;35.10;17.60;;;-3.90;89.70;;;;;;5082002;28;20577;-45
2021/12/22 07:21:08;;;;;;;45.63;17.70;;;-3.80;90.00;;;;;;5059599;28;20486;-46
2021/12/22 07:23:36;;;;;;;32.80;16.43;;;-3.80;89.90;;;;;;5076906;28;20532;-45
2021/12/22 07:26:03;;;;;;;52.20;16.80;;;-3.80;89.60;;;;;;5069166;28;20508;-46
2021/12/22 07:28:30;;;;;;;40.33;17.07;;;-3.80;89.90;;;;;;5078446;28;20499;-45
2021/12/22 07:30:57;;;;;;;23.07;14.10;;;-3.80;90.10;;;;;;5080844;28;20495;-47
2021/12/22 07:33:23;;;;;;;28.40;14.63;;;-3.90;90.20;;;;;;5079491;28;20485;-45
2021/12/22 07:35:58;;;;;;;32.40;15.73;;;-3.80;90.60;;;;;;5081873;28;20478;-45
2021/12/22 07:38:34;;;;;;;35.37;17.80;;;-3.80;90.60;;;;;;5080009;28;20560;-45
2021/12/22 07:41:04;;;;;;;46.23;18.57;;;-3.70;90.30;;;;;;5081845;28;20457;-47
2021/12/22 07:43:31;;;;;;;34.50;18.17;;;-3.70;89.60;;;;;;5072121;28;20491;-46
2021/12/22 07:45:59;;;;;;;29.07;16.03;;;-3.70;89.40;;;;;;5083260;28;20867;-46
2021/12/22 07:48:26;;;;;;;35.23;16.80;;;-3.70;89.00;;;;;;5065693;28;20484;-45
2021/12/22 07:50:53;;;;;;;30.33;17.87;;;-3.70;88.40;;;;;;5080703;28;20577;-45
2021/12/22 07:53:20;;;;;;;43.77;20.60;;;-3.70;88.50;;;;;;5079276;28;20481;-46
2021/12/22 07:55:47;;;;;;;31.50;18.00;;;-3.70;89.30;;;;;;5084855;28;20485;-46
2021/12/22 07:58:15;;;;;;;38.77;20.40;;;-3.60;90.00;;;;;;5079861;27;20492;-45
2021/12/22 08:00:42;;;;;;;45.27;22.17;;;-3.50;90.00;;;;;;5059583;28;20543;-45
2021/12/22 08:03:11;;;;;;;42.10;21.00;;;-3.50;90.10;;;;;;5072894;28;20487;-45
2021/12/22 08:05:38;;;;;;;35.27;18.63;;;-3.40;89.90;;;;;;5063154;28;20529;-45
2021/12/22 08:08:06;;;;;;;32.83;18.40;;;-3.50;88.40;;;;;;5079359;28;20486;-45
2021/12/22 08:10:33;;;;;;;31.70;17.90;;;-3.60;88.20;;;;;;5068556;28;20478;-45
2021/12/22 08:13:00;;;;;;;23.93;14.93;;;-3.60;88.20;;;;;;5080317;28;20836;-46
2021/12/22 08:15:29;;;;;;;31.17;16.60;;;-3.70;88.70;;;;;;5064960;28;20482;-46
2021/12/22 08:17:56;;;;;;;33.67;16.77;;;-3.60;89.80;;;;;;5080915;28;20485;-48
2021/12/22 08:20:24;;;;;;;33.37;17.50;;;-3.50;90.10;;;;;;5076717;28;20493;-45
2021/12/22 08:22:51;;;;;;;31.17;17.80;;;-3.40;90.20;;;;;;5071536;28;20991;-46
2021/12/22 08:25:18;;;;;;;28.03;16.50;;;-3.20;90.40;;;;;;5080489;28;20486;-45
2021/12/22 08:27:45;;;;;;;26.43;16.00;;;-3.00;90.40;;;;;;5074658;28;21049;-45
2021/12/22 08:30:12;;;;;;;35.77;19.00;;;-2.50;91.50;;;;;;5079973;28;20483;-45
2021/12/22 08:32:41;;;;;;;41.07;21.40;;;-1.90;92.00;;;;;;5077774;28;20486;-46
2021/12/22 08:35:11;;;;;;;58.03;24.30;;;-1.30;91.90;;;;;;5068213;28;20470;-47
2021/12/22 08:40:23;;;;;;;40.57;22.43;;;0.20;90.60;;;;;;5074029;28;20890;-47
2021/12/22 08:42:51;;;;;;;40.50;22.83;;;1.00;90.80;;;;;;5074878;28;20486;-46
2021/12/22 08:45:18;;;;;;;34.90;19.20;;;1.50;86.60;;;;;;5075835;28;20479;-46
2021/12/22 08:47:47;;;;;;;40.30;21.73;;;2.00;87.70;;;;;;5075357;28;21054;-47
2021/12/22 08:50:16;;;;;;;32.20;19.20;;;2.60;88.20;;;;;;5065572;28;20484;-46
2021/12/22 08:52:43;;;;;;;31.70;19.50;;;3.10;86.90;;;;;;5089939;28;20485;-48
2021/12/22 08:55:11;;;;;;;36.80;22.67;;;3.60;86.00;;;;;;5067742;28;20484;-47
2021/12/22 08:57:38;;;;;;;36.33;23.53;;;3.90;85.00;;;;;;5088299;28;20893;-46
2021/12/22 09:00:09;;;;;;;31.00;19.00;;;4.20;85.10;;;;;;5073526;28;21038;-46
2021/12/22 09:02:36;;;;;;;30.10;19.80;;;4.30;81.60;;;;;;5085425;28;20472;-47
2021/12/22 09:05:06;;;;;;;34.80;22.07;;;4.20;81.50;;;;;;5079018;28;20476;-46
2021/12/22 09:07:33;;;;;;;33.87;23.03;;;4.20;82.00;;;;;;5077220;28;20568;-46
2021/12/22 09:10:00;;;;;;;28.20;18.23;;;4.30;83.90;;;;;;5069029;28;20488;-47
2021/12/22 09:12:27;;;;;;;24.93;17.13;;;4.40;84.40;;;;;;5092038;28;20486;-47
2021/12/22 09:14:54;;;;;;;28.10;19.83;;;4.40;84.60;;;;;;5078110;28;20481;-46
2021/12/22 09:17:21;;;;;;;36.83;20.60;;;4.40;85.40;;;;;;5072777;28;20478;-46
2021/12/22 09:19:52;;;;;;;26.50;21.80;;;4.30;84.20;;;;;;5072754;28;20488;-48
2021/12/22 09:22:20;;;;;;;29.60;19.00;;;4.00;85.00;;;;;;5070069;28;20580;-46
2021/12/22 09:24:47;;;;;;;28.70;19.83;;;3.70;83.90;;;;;;5073276;28;20481;-46
2021/12/22 09:27:14;;;;;;;32.87;19.83;;;3.60;86.80;;;;;;5073286;28;20486;-46
2021/12/22 09:29:41;;;;;;;29.43;19.50;;;3.60;87.90;;;;;;5069910;28;20493;-45
2021/12/22 09:32:08;;;;;;;33.57;20.30;;;3.70;89.30;;;;;;5086657;28;20476;-46
2021/12/22 09:34:35;;;;;;;33.23;21.43;;;3.80;88.80;;;;;;5080951;28;20489;-45
2021/12/22 09:37:02;;;;;;;38.30;22.40;;;3.90;88.90;;;;;;5068793;28;20501;-46
2021/12/22 09:39:30;;;;;;;27.63;20.37;;;4.10;89.60;;;;;;5094907;28;20482;-46
2021/12/22 09:41:57;;;;;;;30.83;18.90;;;4.30;90.00;;;;;;5080110;28;20484;-47
2021/12/22 09:44:31;;;;;;;34.20;19.70;;;4.40;89.10;;;;;;5087128;28;20476;-46
2021/12/22 09:46:57;;;;;;;41.93;21.97;;;4.60;89.80;;;;;;5070661;28;20479;-46
2021/12/22 09:49:37;;;;;;;29.30;19.80;;;4.70;90.10;;;;;;5086440;28;21029;-46
2021/12/22 09:52:18;;;;;;;31.00;19.73;;;4.90;90.10;;;;;;5075427;28;20575;-46
2021/12/22 09:54:47;;;;;;;28.10;19.73;;;5.10;88.80;;;;;;5082892;28;20619;-46
2021/12/22 09:57:17;;;;;;;30.70;19.77;;;5.20;90.00;;;;;;5069322;28;20495;-46
2021/12/22 09:59:44;;;;;;;28.47;20.33;;;5.30;90.00;;;;;;5085016;28;20490;-46
2021/12/22 10:02:11;;;;;;;30.77;20.23;;;5.50;89.20;;;;;;5082255;28;20482;-46
2021/12/22 10:04:38;;;;;;;28.37;18.63;;;5.70;87.90;;;;;;5071664;28;20822;-46
2021/12/22 10:07:05;;;;;;;29.03;19.30;;;5.70;85.80;;;;;;5098568;28;20984;-46
2021/12/22 10:09:32;;;;;;;29.53;20.20;;;5.50;85.30;;;;;;5084564;28;20547;-46
2021/12/22 10:12:06;;;;;;;28.67;19.50;;;5.50;86.10;;;;;;5084473;28;20476;-46
2021/12/22 10:14:36;;;;;;;28.07;19.47;;;5.70;89.20;;;;;;5082159;28;21056;-46
2021/12/22 10:17:05;;;;;;;30.10;18.63;;;5.80;85.60;;;;;;5081709;28;20481;-46
2021/12/22 10:19:33;;;;;;;31.30;21.13;;;5.90;85.70;;;;;;5085691;28;20489;-45
2021/12/22 10:22:02;;;;;;;19.30;13.77;;;5.50;81.90;;;;;;5079518;28;20508;-46
2021/12/22 10:24:40;;;;;;;32.80;16.37;;;5.00;83.00;;;;;;5064813;28;20487;-46
2021/12/22 10:27:11;;;;;;;26.57;18.30;;;4.40;85.20;;;;;;5079482;28;20474;-46
2021/12/22 10:29:38;;;;;;;35.50;21.80;;;4.50;89.40;;;;;;5082985;28;20486;-46
2021/12/22 10:32:10;;;;;;;27.03;18.40;;;4.50;88.10;;;;;;5086020;28;20480;-46
2021/12/22 10:34:37;;;;;;;31.00;20.63;;;4.40;86.10;;;;;;5080227;28;21003;-45
2021/12/22 10:37:04;;;;;;;27.07;19.93;;;4.60;88.10;;;;;;5087929;28;20529;-46
2021/12/22 10:39:32;;;;;;;35.07;21.13;;;4.40;86.30;;;;;;5082772;28;20820;-46
2021/12/22 10:42:03;;;;;;;38.07;21.33;;;4.70;88.70;;;;;;5088028;28;20842;-46
2021/12/22 10:44:35;;;;;;;37.77;24.90;;;4.90;90.10;;;;;;5081322;28;20662;-46
2021/12/22 10:47:18;;;;;;;43.10;24.83;;;5.30;90.40;;;;;;5080576;28;20485;-45
2021/12/22 10:49:58;;;;;;;50.60;28.77;;;5.70;89.00;;;;;;5073176;28;20555;-46
2021/12/22 10:52:26;;;;;;;33.77;20.13;;;5.90;88.80;;;;;;5078276;28;20489;-45
2021/12/22 10:55:07;;;;;;;32.10;21.27;;;5.70;85.20;;;;;;5082563;28;20475;-45
2021/12/22 10:57:36;;;;;;;35.50;19.60;;;5.90;88.40;;;;;;5075079;28;20480;-45
2021/12/22 11:00:16;;;;;;;29.63;18.40;;;6.00;87.20;;;;;;5075086;28;20967;-45
2021/12/22 11:02:50;;;;;;;33.00;20.87;;;6.20;88.00;;;;;;5076865;28;20551;-45
2021/12/22 11:05:19;;;;;;;30.40;20.20;;;6.10;84.00;;;;;;5093010;28;20472;-45
2021/12/22 11:07:45;;;;;;;26.07;18.30;;;6.20;87.80;;;;;;5068311;28;20499;-45
2021/12/22 11:10:24;;;;;;;30.07;18.57;;;6.40;86.90;;;;;;5079914;27;20488;-45
2021/12/22 11:16:15;;;;;;;31.93;19.50;;;6.50;83.40;;;;;;5043986;28;20519;-45
2021/12/22 11:18:42;;;;;;;23.43;17.50;;;6.50;83.60;;;;;;5081709;28;20518;-45
2021/12/22 11:21:13;;;;;;;29.40;19.67;;;6.20;83.30;;;;;;5090070;28;20551;-45
2021/12/22 11:23:40;;;;;;;35.87;21.20;;;6.00;83.40;;;;;;5075838;28;20483;-45
2021/12/22 11:26:07;;;;;;;27.83;19.27;;;6.20;89.00;;;;;;5078020;28;20569;-45
2021/12/22 11:28:35;;;;;;;29.43;14.13;;;6.40;87.90;;;;;;5082378;28;20476;-45
2021/12/22 11:31:03;;;;;;;29.47;20.27;;;6.30;83.30;;;;;;5082998;28;20479;-45
2021/12/22 11:33:32;;;;;;;26.27;19.23;;;6.30;85.50;;;;;;5083517;28;20542;-46
2021/12/22 11:36:00;;;;;;;27.30;17.80;;;6.10;84.90;;;;;;5079369;28;21467;-46
2021/12/22 11:38:29;;;;;;;30.60;18.80;;;5.90;84.70;;;;;;5076948;28;20749;-46
2021/12/22 11:41:08;;;;;;;27.77;17.70;;;5.50;84.00;;;;;;5064825;28;20472;-46
2021/12/22 11:43:36;;;;;;;31.43;20.53;;;4.90;83.90;;;;;;5095186;27;20491;-46
2021/12/22 11:46:03;;;;;;;29.47;21.83;;;4.50;85.00;;;;;;5070635;28;20541;-45
2021/12/22 11:48:32;;;;;;;29.70;20.07;;;4.20;86.60;;;;;;5084195;27;20489;-46
2021/12/22 11:50:59;;;;;;;33.13;21.07;;;4.00;87.60;;;;;;5077456;27;20918;-46
2021/12/22 11:53:26;;;;;;;25.20;18.90;;;4.00;88.90;;;;;;5077122;28;20520;-46
2021/12/22 11:55:55;;;;;;;28.80;17.53;;;3.80;87.80;;;;;;5066794;28;20498;-47
2021/12/22 11:58:24;;;;;;;33.83;21.17;;;3.80;89.00;;;;;;5078234;28;20495;-45
2021/12/22 12:01:02;;;;;;;32.33;22.67;;;3.80;89.20;;;;;;5077121;28;20475;-45
2021/12/22 12:03:31;;;;;;;35.50;22.67;;;3.80;88.40;;;;;;5074680;28;20485;-45
2021/12/22 12:06:09;;;;;;;31.00;19.27;;;3.70;89.80;;;;;;5049442;28;20498;-45
2021/12/22 12:08:38;;;;;;;36.93;21.33;;;3.70;88.80;;;;;;5080426;28;20492;-46
2021/12/22 12:11:06;;;;;;;26.50;19.70;;;3.80;90.10;;;;;;5068812;28;20487;-46
2021/12/22 12:13:43;;;;;;;34.97;19.60;;;4.00;89.70;;;;;;5083564;28;20482;-46
2021/12/22 12:22:20;;;;;;;29.03;20.37;;;4.10;89.70;;;;;;5068766;28;21032;-46
2021/12/22 12:25:02;;;;;;;26.43;19.17;;;4.00;88.80;;;;;;5090734;28;21257;-46
2021/12/22 12:27:51;;;;;;;27.93;19.60;;;4.00;89.30;;;;;;5068315;28;20548;-46
2021/12/22 12:30:20;;;;;;;28.97;20.37;;;3.90;88.80;;;;;;5078796;28;20539;-46
2021/12/22 12:33:10;;;;;;;29.50;20.50;;;3.70;88.40;;;;;;5080668;28;20492;-46
2021/12/22 12:35:53;;;;;;;31.63;19.43;;;3.70;90.30;;;;;;5045562;28;20817;-45
2021/12/22 12:38:24;;;;;;;25.50;17.53;;;3.60;89.00;;;;;;5068757;28;20474;-46
2021/12/22 12:41:14;;;;;;;28.93;21.73;;;3.60;89.80;;;;;;5077697;28;20499;-47
2021/12/22 12:43:52;;;;;;;31.97;23.30;;;3.40;88.90;;;;;;5066758;28;20871;-47
2021/12/22 12:46:39;;;;;;;34.20;22.30;;;3.30;90.10;;;;;;5066864;28;20594;-46
2021/12/22 12:49:34;;;;;;;32.37;21.07;;;3.10;90.80;;;;;;5091127;28;20839;-46
2021/12/22 12:52:07;;;;;;;35.63;22.77;;;3.10;91.20;;;;;;5069881;28;20484;-46
2021/12/22 12:54:39;;;;;;;34.63;24.03;;;2.90;90.50;;;;;;5072479;28;20552;-45
2021/12/22 12:57:30;;;;;;;36.10;23.67;;;2.80;90.50;;;;;;5076250;28;20577;-46
2021/12/22 13:00:15;;;;;;;35.33;24.47;;;2.70;90.70;;;;;;5073244;28;20486;-50